Update: 23-Jul-2019 12:20Z
40°C
WEATHER FORECAST DUBAI WORLD CENTRAL
 
Tuesday, July 23, 2019 (12:21 UTC)
Al Maktoum International Airport
Last Updated: 23-Jul-2019 (12:20Z)
Wind Dir/Speed: N at 12 kt
Temperature: 39.6°C
Rel. Humidity: 39 %
Pressure: 995.8 hPa
Visibility: 4900 m
  • METAR OMDW 231200Z 34014KT 4000 DU NSC 40/23 Q0995 NOSIG
DWC AIRPORT WEATHER FORECAST FOR 30 HOUR:
DWC TAF:
TAF OMDW 231100Z 2312/2418 33012KT 6000 NSC 
 PROB30 TEMPO 2312/2315 3000 DU 
 BECMG 2315/2317 08007KT 
 BECMG 2401/2403 16010KT 
 BECMG 2409/2411 34016KT 
 BECMG 2415/2417 07007KT=
VALID FROM:
2019-07-23 12:00Z
VALID TILL:
2019-07-24 18:00Z
SURFACE WIND:
NW'LY 12KT

BECOMING E'LY 07KT FROM 1500Z-1700Z TODAY

BECOMING SSE'LY 10KT FROM 0100Z-0300Z WEDNESDAY

BECOMING NNW'LY 16KT FROM 0900Z-1100Z WEDNESDAY

BECOMING ENE'LY 07KT FROM 1500Z-1700Z WEDNESDAY.
VISIBILITY:
05-08 KM,
30% PROBABILITY OF 3000 M AT TIMES BETWEEN 1200Z-1500Z TODAY,
10% PROBABILITY OF 3000 M BETWEEN 0100Z-0500Z WEDNESDAY.
WEATHER:
DUSTY,
30% PROBABILITY OF DUST AT TIMES BETWEEN 1200Z-1500Z TODAY,
10% PROBABILITY OF DUST BETWEEN 0100Z-0500Z WEDNESDAY.
CLOUD:
NIL SIGNIFICANT.
TEMPERATURE:
MIN TEMPERATURE 31°C AROUND 0200Z WEDNESDAY

MAX TEMPERATURE 43°C AROUND 1000Z WEDNESDAY.
HUMIDITY:
MAX HUMIDITY 70% AROUND 0200Z WEDNESDAY

MIN HUMIDITY 30% AROUND 1000Z WEDNESDAY.
WIND SHEAR:
NIL SIGNIFICANT.
TEMPERATURE INVERSION:
NIL SIGNIFICANT.
COMMENTS:
NIL.